Time;durP1;ratioP1;P1;durP2;ratioP2;P2;SDS_P1;SDS_P2;PMS_P1;PMS_P2;Temp;Humidity;BMP_temperature;BMP_pressure;BME280_temperature;BME280_humidity;BME280_pressure;Samples;Min_cycle;Max_cycle;Signal;HPM_P1;HPM_P2
2023/02/01 00:02:01;;;;;;;19.55;13.55;;;;;;;1.69;87.66;147747.00;5058599;28;20376;-67
2023/02/01 00:04:26;;;;;;;19.73;13.70;;;;;;;1.60;87.26;147724.09;5042515;28;20394;-66
2023/02/01 00:06:52;;;;;;;24.25;13.55;;;;;;;1.48;87.28;147693.53;5042243;28;20051;-67
2023/02/01 00:09:18;;;;;;;22.88;14.52;;;;;;;1.58;87.05;147717.72;5042645;28;20033;-65
2023/02/01 00:11:43;;;;;;;20.55;13.65;;;;;;;1.60;86.59;147722.84;5042809;28;20250;-66
2023/02/01 00:14:09;;;;;;;19.83;12.90;;;;;;;1.65;86.56;147735.56;5025035;28;20198;-66
2023/02/01 00:16:35;;;;;;;20.17;13.70;;;;;;;1.67;86.50;147740.69;5042230;28;20029;-65
2023/02/01 00:19:10;;;;;;;23.02;14.80;;;;;;;1.59;86.42;147720.28;5025061;28;20021;-66
2023/02/01 00:21:36;;;;;;;20.00;13.60;;;;;;;1.69;85.81;147745.75;5042563;28;20030;-66
2023/02/01 00:24:03;;;;;;;25.25;14.88;;;;;;;1.71;85.88;147750.81;5042809;28;20144;-66
2023/02/01 00:26:35;;;;;;;21.20;13.48;;;;;;;1.64;85.83;147733.00;5057284;28;20029;-65
2023/02/01 00:29:02;;;;;;;22.65;13.82;;;;;;;1.69;86.42;147745.75;5049565;28;20071;-66
2023/02/01 00:31:28;;;;;;;21.52;13.30;;;;;;;1.62;86.20;147727.91;5049384;28;20165;-66
2023/02/01 00:33:54;;;;;;;22.45;14.23;;;;;;;1.66;85.74;147739.38;5041158;28;20041;-67
2023/02/01 00:36:20;;;;;;;19.40;12.75;;;;;;;1.74;86.09;147758.50;5041866;28;20265;-65
2023/02/01 00:38:46;;;;;;;20.98;13.50;;;;;;;1.67;86.08;147740.69;5059574;28;20088;-65
2023/02/01 00:41:15;;;;;;;20.23;13.25;;;;;;;1.50;86.15;147699.91;5052001;28;20045;-65
2023/02/01 00:43:41;;;;;;;23.73;14.52;;;;;;;1.61;85.71;147725.38;5052140;28;20100;-67
2023/02/01 00:46:06;;;;;;;20.17;14.15;;;;;;;1.77;86.09;147766.13;5056923;28;20029;-65
2023/02/01 00:48:32;;;;;;;25.77;14.52;;;;;;;1.69;85.53;147747.00;5042113;28;20045;-66
2023/02/01 00:51:02;;;;;;;23.55;13.90;;;;;;;1.65;86.05;147735.56;5042319;28;20071;-66
2023/02/01 00:53:29;;;;;;;21.20;13.70;;;;;;;1.65;86.00;147735.56;5042115;28;20284;-66
2023/02/01 00:55:54;;;;;;;21.83;14.18;;;;;;;1.60;85.88;147722.84;5041814;28;20036;-66
2023/02/01 00:58:20;;;;;;;20.95;12.82;;;;;;;1.50;85.96;147698.66;5021108;28;20034;-65
2023/02/01 01:00:46;;;;;;;21.52;12.63;;;;;;;1.63;85.94;147731.75;5008019;28;20216;-65
2023/02/01 01:03:18;;;;;;;21.48;13.20;;;;;;;1.70;85.46;147749.56;5041887;28;20029;-66
2023/02/01 01:05:45;;;;;;;21.38;12.75;;;;;;;1.50;85.91;147698.66;5040153;28;20037;-66
2023/02/01 01:08:10;;;;;;;21.63;13.32;;;;;;;1.49;85.79;147697.34;5055284;28;20317;-66
2023/02/01 01:10:36;;;;;;;20.83;13.32;;;;;;;1.67;85.59;147740.69;5053431;28;20040;-66
2023/02/01 01:13:01;;;;;;;21.58;13.68;;;;;;;1.61;85.35;147725.38;5041998;28;20025;-66
2023/02/01 01:15:27;;;;;;;19.50;13.02;;;;;;;1.65;85.21;147736.81;5041496;28;20037;-66
2023/02/01 01:17:53;;;;;;;19.38;12.82;;;;;;;1.72;84.89;147753.38;5041930;28;20361;-66
2023/02/01 01:20:21;;;;;;;20.25;13.05;;;;;;;1.69;84.75;147747.00;5040961;28;20037;-66
2023/02/01 01:22:47;;;;;;;17.67;11.98;;;;;;;1.83;84.46;147781.41;5041991;28;20029;-66
2023/02/01 01:25:13;;;;;;;19.80;13.63;;;;;;;1.68;84.51;147743.19;5027522;28;20290;-66
2023/02/01 01:27:39;;;;;;;20.65;13.02;;;;;;;1.80;84.13;147773.75;5041553;28;20041;-66
2023/02/01 01:30:05;;;;;;;25.70;13.07;;;;;;;1.75;84.25;147759.75;5057186;28;20135;-66
2023/02/01 01:32:30;;;;;;;21.48;14.13;;;;;;;1.61;84.74;147725.38;5041774;28;20037;-66
2023/02/01 01:34:56;;;;;;;19.30;13.45;;;;;;;1.63;85.13;147730.47;5041678;28;20036;-65
2023/02/01 01:37:21;;;;;;;20.23;12.77;;;;;;;1.70;84.71;147748.31;5023759;28;20049;-66
2023/02/01 01:39:47;;;;;;;19.65;13.13;;;;;;;1.67;84.93;147741.94;5025314;28;20045;-66
2023/02/01 01:42:13;;;;;;;19.38;13.20;;;;;;;1.71;84.43;147750.81;5046129;28;20029;-65
2023/02/01 01:44:56;;;;;;;20.88;13.00;;;;;;;1.62;84.52;147727.91;5041644;28;20088;-66
2023/02/01 01:47:22;;;;;;;19.35;13.23;;;;;;;1.67;84.35;147741.94;5040875;28;20041;-67
2023/02/01 01:49:48;;;;;;;19.42;11.98;;;;;;;1.83;84.12;147781.41;5041624;28;20032;-65
2023/02/01 01:52:14;;;;;;;20.38;13.32;;;;;;;1.81;83.71;147775.03;5041371;28;20096;-66
2023/02/01 01:54:47;;;;;;;20.60;12.35;;;;;;;1.75;84.18;147761.00;5041577;28;20067;-66
2023/02/01 01:57:22;;;;;;;20.33;12.70;;;;;;;1.61;84.08;147725.38;5040973;28;20043;-66
2023/02/01 01:59:52;;;;;;;21.17;13.18;;;;;;;1.62;84.54;147729.19;5041340;28;20110;-66
2023/02/01 02:02:18;;;;;;;19.20;12.75;;;;;;;1.67;84.60;147740.69;5041686;28;20435;-66
2023/02/01 02:04:45;;;;;;;19.10;12.70;;;;;;;1.66;84.28;147739.38;5045783;28;20072;-66
2023/02/01 02:07:17;;;;;;;20.08;12.40;;;;;;;1.60;84.11;147722.84;5044093;28;20320;-66
2023/02/01 02:09:43;;;;;;;20.52;13.07;;;;;;;1.68;83.98;147743.19;5059991;28;20048;-66
2023/02/01 02:12:09;;;;;;;19.58;12.93;;;;;;;1.69;84.32;147745.75;5041379;28;20025;-65
2023/02/01 02:14:36;;;;;;;20.42;13.20;;;;;;;1.71;84.43;147750.81;5040684;28;20110;-66
2023/02/01 02:17:26;;;;;;;20.05;13.13;;;;;;;1.72;84.07;147754.69;5051437;28;20056;-66
2023/02/01 02:20:01;;;;;;;20.20;11.80;;;;;;;1.79;84.21;147771.19;5050122;28;20100;-66
2023/02/01 02:22:52;;;;;;;20.85;13.20;;;;;;;1.74;83.76;147758.50;5019417;28;20038;-66
2023/02/01 02:25:38;;;;;;;18.50;12.20;;;;;;;1.64;84.25;147734.28;5025848;28;20104;-66
2023/02/01 02:28:16;;;;;;;19.00;12.02;;;;;;;1.61;84.55;147726.66;5041069;28;20034;-66
2023/02/01 02:30:50;;;;;;;18.23;12.57;;;;;;;1.67;84.34;147741.94;5042292;28;20029;-66
2023/02/01 02:33:30;;;;;;;21.70;12.63;;;;;;;1.64;84.04;147733.00;5044622;28;20033;-66
2023/02/01 02:36:25;;;;;;;16.52;11.55;;;;;;;1.61;84.37;147725.38;5044049;28;20032;-66
2023/02/01 02:39:26;;;;;;;19.17;12.27;;;;;;;1.69;84.32;147747.00;5044873;28;20029;-67
2023/02/01 02:48:02;;;;;;;18.52;12.25;;;;;;;1.53;84.37;147706.28;5047831;28;20088;-67
2023/02/01 03:04:42;;;;;;;19.48;13.02;;;;;;;1.71;83.33;147752.13;5044119;28;20091;-67
2023/02/01 03:07:50;;;;;;;20.25;13.90;;;;;;;1.78;83.24;147767.38;5043603;28;20351;-67
2023/02/01 03:10:20;;;;;;;20.85;13.43;;;;;;;1.80;83.42;147772.50;5026217;28;20034;-66
2023/02/01 03:12:56;;;;;;;22.52;14.23;;;;;;;1.73;83.58;147757.19;5044034;28;20040;-66
2023/02/01 03:15:32;;;;;;;22.17;14.10;;;;;;;1.69;83.24;147745.75;5043425;28;20053;-66
2023/02/01 03:18:01;;;;;;;20.02;13.18;;;;;;;1.52;83.61;147704.97;5043748;28;20025;-67
2023/02/01 03:20:29;;;;;;;22.50;13.57;;;;;;;1.68;83.76;147744.50;5043501;28;20025;-65
2023/02/01 03:22:57;;;;;;;23.08;14.00;;;;;;;1.71;83.40;147750.81;5043496;28;20029;-66
2023/02/01 03:25:30;;;;;;;20.20;13.30;;;;;;;1.61;83.53;147726.66;5043305;28;20029;-67
2023/02/01 03:28:06;;;;;;;21.52;14.48;;;;;;;1.60;83.33;147722.84;5043373;28;20185;-66
2023/02/01 03:30:37;;;;;;;22.92;14.88;;;;;;;1.78;83.40;147767.38;5043715;28;20068;-67
2023/02/01 03:33:13;;;;;;;19.83;14.00;;;;;;;1.63;83.41;147731.75;5026183;28;20037;-67
2023/02/01 03:36:06;;;;;;;20.05;14.02;;;;;;;1.68;84.09;147743.19;5043097;28;20041;-67
2023/02/01 03:38:44;;;;;;;21.38;14.00;;;;;;;1.58;83.85;147719.00;5022421;28;20045;-66
2023/02/01 03:41:30;;;;;;;23.50;14.95;;;;;;;1.61;84.17;147725.38;5047180;28;20092;-67
2023/02/01 03:44:38;;;;;;;24.00;14.65;;;;;;;1.69;84.12;147747.00;5052860;28;20021;-66
2023/02/01 03:47:08;;;;;;;21.85;14.07;;;;;;;1.61;84.44;147725.38;5012446;28;20041;-66
2023/02/01 03:49:40;;;;;;;21.92;13.20;;;;;;;1.68;84.25;147743.19;5050069;28;20036;-66
2023/02/01 03:52:08;;;;;;;21.65;13.40;;;;;;;1.78;83.95;147767.38;5060171;28;20060;-64
2023/02/01 03:54:36;;;;;;;19.85;13.07;;;;;;;1.86;83.59;147789.03;5043221;28;20022;-65
2023/02/01 03:57:07;;;;;;;25.58;16.08;;;;;;;1.81;83.62;147775.03;5061363;28;20048;-65
2023/02/01 03:59:33;;;;;;;24.02;14.25;;;;;;;1.81;83.52;147775.03;5047926;28;20017;-66
2023/02/01 04:01:58;;;;;;;19.67;13.50;;;;;;;1.77;83.60;147764.81;5041500;28;20144;-64
2023/02/01 04:04:24;;;;;;;21.95;13.15;;;;;;;1.70;83.74;147749.56;5042725;28;20030;-66
2023/02/01 04:06:50;;;;;;;19.30;13.40;;;;;;;1.66;83.97;147739.38;5042613;28;20229;-65
2023/02/01 04:09:16;;;;;;;19.90;14.52;;;;;;;1.77;84.03;147766.13;5042668;28;20372;-66
2023/02/01 04:11:42;;;;;;;21.80;14.25;;;;;;;1.86;83.88;147787.78;5021737;28;20105;-66
2023/02/01 04:14:08;;;;;;;20.88;13.18;;;;;;;1.83;83.70;147780.13;5045429;28;20096;-66
2023/02/01 04:16:34;;;;;;;20.08;13.52;;;;;;;1.82;83.44;147777.56;5055305;28;20041;-66
2023/02/01 04:19:00;;;;;;;22.02;13.82;;;;;;;1.83;83.33;147780.13;5042843;28;20025;-65
2023/02/01 04:21:26;;;;;;;20.75;13.30;;;;;;;1.83;84.01;147781.41;5042543;28;20120;-65
2023/02/01 04:23:52;;;;;;;22.67;14.43;;;;;;;1.82;84.30;147778.84;5042640;28;20194;-66
2023/02/01 04:26:19;;;;;;;20.48;14.57;;;;;;;1.68;84.40;147744.50;5041631;28;20095;-66
2023/02/01 04:28:47;;;;;;;23.35;14.48;;;;;;;1.78;83.95;147768.69;5042526;28;20029;-67
2023/02/01 04:31:13;;;;;;;22.27;14.30;;;;;;;1.82;83.94;147778.84;5045532;28;20059;-66
2023/02/01 04:33:39;;;;;;;21.73;13.73;;;;;;;1.70;84.60;147749.56;5061501;28;20097;-66
2023/02/01 04:36:05;;;;;;;23.30;15.05;;;;;;;1.66;84.63;147738.13;5043471;28;20214;-65
2023/02/01 04:38:32;;;;;;;21.98;14.80;;;;;;;1.80;84.26;147772.50;5042218;28;20101;-66
2023/02/01 04:40:58;;;;;;;24.33;14.95;;;;;;;1.80;84.53;147772.50;5046029;28;20194;-65
2023/02/01 04:43:23;;;;;;;23.38;14.52;;;;;;;1.87;83.97;147791.59;5042136;28;20052;-65
2023/02/01 04:45:49;;;;;;;24.27;15.23;;;;;;;1.69;84.67;147747.00;5042305;28;20092;-66
2023/02/01 04:48:16;;;;;;;23.70;15.43;;;;;;;1.71;84.46;147752.13;5024392;28;20272;-65
2023/02/01 04:50:45;;;;;;;23.42;14.32;;;;;;;1.72;84.66;147753.38;5041999;28;20241;-65
2023/02/01 04:53:11;;;;;;;24.85;15.75;;;;;;;1.63;84.72;147731.75;5041590;28;20198;-65
2023/02/01 04:55:36;;;;;;;22.85;15.52;;;;;;;1.60;84.94;147724.09;5041338;28;20059;-66
2023/02/01 04:58:02;;;;;;;22.63;13.80;;;;;;;1.68;84.64;147743.19;5041501;28;20061;-65
2023/02/01 05:00:28;;;;;;;23.45;15.90;;;;;;;1.73;84.80;147755.94;5023837;28;20079;-66
2023/02/01 05:02:53;;;;;;;24.98;15.52;;;;;;;1.76;84.49;147763.56;5024211;28;20374;-66
2023/02/01 05:05:19;;;;;;;23.42;14.43;;;;;;;1.73;84.23;147757.19;5041069;28;20065;-65
2023/02/01 05:07:45;;;;;;;24.92;15.05;;;;;;;1.71;84.08;147750.81;5049406;28;20249;-66
2023/02/01 05:10:11;;;;;;;22.02;14.50;;;;;;;1.73;83.97;147757.19;5058118;28;20029;-65
2023/02/01 05:15:22;;;;;;;24.05;14.85;;;;;;;1.81;84.33;147775.03;5021773;28;20024;-65
2023/02/01 05:17:47;;;;;;;22.63;14.02;;;;;;;1.95;83.60;147809.41;5054306;28;20029;-65
2023/02/01 05:20:13;;;;;;;22.33;15.38;;;;;;;1.82;83.35;147777.56;5049584;28;20029;-65
2023/02/01 05:22:38;;;;;;;25.50;16.20;;;;;;;1.83;83.37;147780.13;5041712;28;20052;-66
2023/02/01 05:25:04;;;;;;;21.95;14.05;;;;;;;1.78;83.69;147768.69;5023803;28;20034;-65
2023/02/01 05:27:30;;;;;;;23.55;13.63;;;;;;;1.76;83.84;147762.31;5041241;28;20034;-66
2023/02/01 05:29:56;;;;;;;23.63;14.82;;;;;;;1.76;84.34;147762.31;5041130;28;20113;-67
2023/02/01 05:32:22;;;;;;;24.30;15.10;;;;;;;1.68;84.64;147743.19;5033411;28;20033;-65
2023/02/01 05:34:47;;;;;;;27.15;15.35;;;;;;;1.62;84.77;147727.91;5048934;28;20095;-66
2023/02/01 05:37:13;;;;;;;27.67;15.30;;;;;;;1.80;84.19;147773.75;5042129;28;20030;-67
2023/02/01 05:39:38;;;;;;;26.60;15.50;;;;;;;1.82;84.40;147777.56;5040587;28;20029;-65
2023/02/01 05:42:04;;;;;;;25.52;15.68;;;;;;;1.72;84.66;147753.38;5042061;28;20021;-65
2023/02/01 05:44:29;;;;;;;27.77;17.27;;;;;;;1.62;84.45;147727.91;5047774;28;20061;-66
2023/02/01 05:46:55;;;;;;;25.52;16.23;;;;;;;1.82;84.18;147778.84;5040963;28;20254;-65
2023/02/01 05:49:21;;;;;;;31.35;16.98;;;;;;;1.78;83.84;147767.38;5041281;28;20064;-65
2023/02/01 05:51:46;;;;;;;27.80;16.23;;;;;;;1.90;84.34;147797.97;5023638;28;20036;-65
2023/02/01 05:54:12;;;;;;;28.17;16.95;;;;;;;1.71;84.35;147750.81;5041867;28;20017;-66
2023/02/01 05:56:38;;;;;;;29.60;17.90;;;;;;;1.55;84.89;147711.34;5046700;28;20306;-67
2023/02/01 05:59:03;;;;;;;29.70;18.25;;;;;;;1.77;85.07;147766.13;5041109;28;20017;-66
2023/02/01 06:01:29;;;;;;;29.65;18.02;;;;;;;1.77;84.48;147764.81;5041173;28;20056;-65
2023/02/01 06:03:54;;;;;;;34.53;18.83;;;;;;;1.63;84.46;147731.75;5041235;28;20037;-63
2023/02/01 06:06:20;;;;;;;29.27;18.45;;;;;;;1.66;85.22;147738.13;5062690;28;20248;-64
2023/02/01 06:08:46;;;;;;;31.65;18.83;;;;;;;1.57;85.39;147715.19;5049171;28;20029;-64
2023/02/01 06:11:13;;;;;;;30.92;17.67;;;;;;;1.72;85.05;147753.38;5054508;28;20049;-65
2023/02/01 06:13:39;;;;;;;32.42;18.95;;;;;;;1.62;84.91;147729.19;5063613;28;20036;-65
2023/02/01 06:16:06;;;;;;;29.55;18.98;;;;;;;1.78;84.57;147768.69;5062108;28;20021;-64
2023/02/01 06:18:33;;;;;;;33.65;18.88;;;;;;;1.74;84.54;147758.50;5043609;28;20033;-64
2023/02/01 06:21:00;;;;;;;34.65;19.50;;;;;;;1.90;84.56;147797.97;5044168;28;20041;-65
2023/02/01 06:23:26;;;;;;;32.85;18.83;;;;;;;1.91;84.14;147800.53;5044043;28;20236;-65
2023/02/01 06:25:53;;;;;;;39.55;20.63;;;;;;;1.59;85.58;147720.28;5044247;28;20025;-66
2023/02/01 06:28:19;;;;;;;32.17;19.40;;;;;;;1.57;84.51;147715.19;5044040;28;20021;-64
2023/02/01 06:30:45;;;;;;;30.02;19.15;;;;;;;1.66;85.46;147739.38;5026626;28;20051;-65
2023/02/01 06:33:17;;;;;;;35.25;21.17;;;;;;;1.60;85.44;147724.09;5062656;28;20067;-64
2023/02/01 06:35:46;;;;;;;34.10;19.60;;;;;;;1.48;85.30;147694.84;5049076;28;20029;-66
2023/02/01 06:38:13;;;;;;;34.58;20.50;;;;;;;1.65;85.35;147736.81;5044016;28;20037;-66
2023/02/01 06:40:41;;;;;;;35.25;20.60;;;;;;;1.61;85.51;147725.38;5049622;28;20332;-66
2023/02/01 06:43:08;;;;;;;37.03;19.77;;;;;;;1.60;85.69;147724.09;5062436;28;20035;-65
2023/02/01 06:45:33;;;;;;;36.22;20.88;;;;;;;1.49;85.70;147697.34;5043933;28;20029;-65
2023/02/01 06:48:00;;;;;;;39.50;21.02;;;;;;;1.57;85.63;147715.19;5060658;28;20048;-66
2023/02/01 06:50:26;;;;;;;41.20;21.90;;;;;;;1.50;85.98;147699.91;5051686;28;20041;-66
2023/02/01 06:52:52;;;;;;;37.28;21.23;;;;;;;1.55;85.38;147712.66;5044114;28;20310;-66
2023/02/01 06:55:17;;;;;;;40.95;21.88;;;;;;;1.63;85.31;147731.75;5043367;28;20096;-66
2023/02/01 06:57:43;;;;;;;36.05;21.45;;;;;;;1.77;84.95;147766.13;5043986;28;20375;-66
2023/02/01 07:00:09;;;;;;;36.55;20.58;;;;;;;1.87;84.88;147790.31;5043812;28;20032;-67
2023/02/01 07:02:34;;;;;;;32.75;19.35;;;;;;;1.99;84.60;147819.59;5043548;28;20326;-66
2023/02/01 07:05:00;;;;;;;35.92;20.13;;;;;;;1.75;84.28;147759.75;5059203;28;20080;-66
2023/02/01 07:07:26;;;;;;;36.85;20.65;;;;;;;1.67;84.97;147740.69;5043692;28;20092;-66
2023/02/01 07:09:51;;;;;;;40.58;21.23;;;;;;;1.77;84.62;147766.13;5025767;28;20021;-66
2023/02/01 07:12:19;;;;;;;35.17;19.77;;;;;;;1.62;84.60;147727.91;5043777;28;20093;-66
2023/02/01 07:14:44;;;;;;;36.50;20.70;;;;;;;1.75;84.91;147761.00;5043847;28;20398;-66
2023/02/01 07:17:10;;;;;;;39.35;21.20;;;;;;;1.65;84.97;147735.56;5042672;28;20033;-66
2023/02/01 07:19:35;;;;;;;38.28;20.48;;;;;;;1.49;85.55;147696.09;5043926;28;20052;-65
2023/02/01 07:22:01;;;;;;;34.90;20.10;;;;;;;1.50;85.51;147699.91;5043515;28;20356;-68
2023/02/01 07:24:27;;;;;;;36.85;20.42;;;;;;;1.54;85.71;147708.84;5043644;28;20042;-67
2023/02/01 07:26:52;;;;;;;42.42;21.35;;;;;;;1.73;85.21;147755.94;5043433;28;20021;-67
2023/02/01 07:29:19;;;;;;;36.70;20.40;;;;;;;1.84;85.04;147782.66;5043208;28;20071;-66
2023/02/01 07:31:44;;;;;;;37.47;21.13;;;;;;;1.80;84.42;147772.50;5043235;28;20092;-66
2023/02/01 07:34:10;;;;;;;39.55;22.13;;;;;;;1.60;84.86;147722.84;5025748;28;20092;-67
2023/02/01 07:36:36;;;;;;;38.80;21.90;;;;;;;1.86;84.92;147789.03;5043364;28;20025;-66
2023/02/01 07:39:03;;;;;;;54.28;22.90;;;;;;;1.79;83.88;147771.19;5058792;28;20036;-66
2023/02/01 07:41:28;;;;;;;36.28;21.08;;;;;;;1.97;83.91;147815.78;5037546;28;20024;-66
2023/02/01 07:43:54;;;;;;;36.17;20.90;;;;;;;1.98;84.22;147818.34;5055702;28;20029;-65
2023/02/01 07:46:20;;;;;;;34.83;20.67;;;;;;;1.68;83.71;147743.19;5042573;28;20045;-66
2023/02/01 07:48:46;;;;;;;33.38;20.85;;;;;;;1.67;84.07;147740.69;5042996;28;20060;-67
2023/02/01 07:51:14;;;;;;;39.67;20.88;;;;;;;1.77;83.80;147766.13;5042664;28;20033;-67
2023/02/01 07:53:41;;;;;;;36.25;20.77;;;;;;;1.70;83.62;147749.56;5042991;28;20046;-67
2023/02/01 07:56:17;;;;;;;37.42;20.88;;;;;;;1.62;84.07;147727.91;5043067;28;20036;-67
2023/02/01 07:58:46;;;;;;;38.45;21.95;;;;;;;1.82;84.12;147777.56;5024565;28;20052;-66
2023/02/01 08:01:24;;;;;;;34.15;20.70;;;;;;;1.70;83.58;147749.56;5042005;28;20052;-66
2023/02/01 08:04:01;;;;;;;37.90;22.27;;;;;;;1.85;83.38;147786.50;5042646;28;20322;-65
2023/02/01 08:06:29;;;;;;;38.70;21.35;;;;;;;1.78;83.25;147767.38;5040607;28;20029;-66
2023/02/01 08:08:54;;;;;;;34.00;20.33;;;;;;;1.90;83.00;147799.22;5042099;28;20089;-66
2023/02/01 08:11:22;;;;;;;37.97;21.65;;;;;;;2.00;83.27;147823.41;5052806;28;20024;-67
2023/02/01 08:13:47;;;;;;;35.15;20.98;;;;;;;1.97;82.85;147814.53;5055836;28;20057;-66
2023/02/01 08:16:15;;;;;;;32.45;20.88;;;;;;;1.92;83.23;147803.03;5041902;28;20092;-67
2023/02/01 08:18:41;;;;;;;32.42;19.73;;;;;;;1.83;83.41;147780.13;5042001;28;20026;-65
2023/02/01 08:21:15;;;;;;;37.75;22.33;;;;;;;1.70;83.42;147748.31;5042365;28;20044;-66
2023/02/01 08:23:42;;;;;;;32.65;20.45;;;;;;;1.76;83.88;147762.31;5042427;28;20118;-67
2023/02/01 08:26:18;;;;;;;34.60;21.08;;;;;;;1.68;83.98;147743.19;5042465;28;20201;-66
2023/02/01 08:28:47;;;;;;;32.08;19.80;;;;;;;1.63;83.29;147730.47;5042199;28;20371;-66
2023/02/01 08:31:15;;;;;;;35.22;20.75;;;;;;;1.80;83.02;147773.75;5041855;28;20033;-66
2023/02/01 08:33:42;;;;;;;35.50;20.70;;;;;;;1.88;82.98;147794.16;5024883;28;20174;-67
2023/02/01 08:36:10;;;;;;;37.15;21.58;;;;;;;1.79;83.28;147771.19;5041962;28;20366;-67
2023/02/01 08:38:37;;;;;;;36.58;22.67;;;;;;;1.73;83.43;147755.94;5042119;28;20041;-65
2023/02/01 08:41:09;;;;;;;34.08;20.10;;;;;;;1.54;83.57;147710.09;5044558;28;20079;-67
2023/02/01 08:43:35;;;;;;;35.40;21.80;;;;;;;1.62;83.57;147729.19;5042023;28;20056;-65
2023/02/01 08:46:02;;;;;;;37.50;20.60;;;;;;;1.63;82.91;147731.75;5041933;28;20033;-67
2023/02/01 08:48:27;;;;;;;33.55;20.00;;;;;;;1.77;82.99;147766.13;5041962;28;20056;-67
2023/02/01 08:50:53;;;;;;;32.33;20.73;;;;;;;1.80;82.62;147772.50;5042020;28;20409;-66
2023/02/01 08:53:19;;;;;;;34.97;20.20;;;;;;;1.62;82.26;147727.91;5041591;28;20225;-65
2023/02/01 08:55:46;;;;;;;30.73;19.33;;;;;;;1.79;82.09;147771.19;5057050;28;20044;-67
2023/02/01 08:58:13;;;;;;;32.28;20.45;;;;;;;1.70;81.66;147749.56;5024105;28;20471;-68
2023/02/01 09:00:40;;;;;;;34.28;20.00;;;;;;;1.93;82.10;147804.34;5041847;28;20057;-66
2023/02/01 09:03:05;;;;;;;29.77;19.88;;;;;;;1.99;80.59;147820.84;5042094;28;20289;-66
2023/02/01 09:05:31;;;;;;;31.83;19.60;;;;;;;1.93;80.76;147804.34;5041686;28;20104;-66
2023/02/01 09:07:57;;;;;;;30.38;20.92;;;;;;;2.06;80.29;147837.44;5041997;28;20033;-68
2023/02/01 09:10:22;;;;;;;33.20;20.63;;;;;;;1.87;80.70;147791.59;5037476;28;20029;-66
2023/02/01 09:12:48;;;;;;;34.15;20.25;;;;;;;2.08;80.60;147842.50;5041926;28;20092;-65
2023/02/01 09:15:13;;;;;;;33.25;19.73;;;;;;;2.16;80.72;147862.91;5041216;28;20029;-67
2023/02/01 09:17:41;;;;;;;29.42;18.95;;;;;;;2.05;80.22;147836.19;5034253;28;20025;-67
2023/02/01 09:20:07;;;;;;;27.73;19.77;;;;;;;2.10;80.42;147847.63;5033335;28;20063;-66
2023/02/01 09:22:33;;;;;;;27.52;18.60;;;;;;;1.87;80.49;147791.59;5029234;28;20039;-68
2023/02/01 09:24:58;;;;;;;28.38;16.88;;;;;;;1.88;80.43;147794.16;5043152;28;20053;-66
2023/02/01 09:27:24;;;;;;;25.50;17.13;;;;;;;1.84;80.08;147782.66;5041196;28;20026;-66
2023/02/01 09:29:52;;;;;;;28.80;17.67;;;;;;;1.81;80.40;147776.31;5041693;28;20060;-67
2023/02/01 09:32:21;;;;;;;25.30;16.55;;;;;;;2.00;80.48;147822.16;5041393;28;20036;-67
2023/02/01 09:34:48;;;;;;;29.13;18.35;;;;;;;2.03;79.84;147829.78;5046897;28;20029;-66
2023/02/01 09:37:13;;;;;;;29.58;19.05;;;;;;;1.86;79.98;147789.03;5060284;28;20070;-67
2023/02/01 09:39:39;;;;;;;26.80;18.00;;;;;;;1.90;81.11;147799.22;5041351;28;20049;-66
2023/02/01 09:42:23;;;;;;;28.65;19.38;;;;;;;1.76;80.30;147762.31;5046148;28;20072;-67
2023/02/01 09:45:16;;;;;;;32.65;20.58;;;;;;;2.00;80.04;147822.16;5044494;28;20075;-67
2023/02/01 09:47:52;;;;;;;30.85;20.02;;;;;;;1.89;79.96;147795.41;5031958;28;20313;-66
2023/02/01 09:50:22;;;;;;;32.10;19.83;;;;;;;2.01;80.41;147825.97;5025352;28;20395;-67
2023/02/01 09:52:57;;;;;;;29.35;19.40;;;;;;;2.12;79.78;147851.44;5025033;28;20061;-66
2023/02/01 09:55:50;;;;;;;27.08;18.17;;;;;;;2.13;79.81;147855.25;5007653;28;20050;-67
2023/02/01 09:58:47;;;;;;;29.27;17.98;;;;;;;2.13;80.18;147854.00;5022273;28;20076;-67
2023/02/01 10:01:25;;;;;;;31.05;18.85;;;;;;;1.79;81.11;147771.19;5025097;28;20034;-67
2023/02/01 10:04:02;;;;;;;29.88;19.35;;;;;;;1.94;80.75;147808.16;5025153;28;20306;-67
2023/02/01 10:06:52;;;;;;;28.88;19.95;;;;;;;1.52;81.77;147704.97;5024732;28;20329;-67
2023/02/01 10:09:33;;;;;;;35.45;22.27;;;;;;;1.40;82.19;147674.47;5025014;28;20041;-67
2023/02/01 10:12:30;;;;;;;33.10;20.85;;;;;;;1.64;81.88;147733.00;5024834;28;20029;-67
2023/02/01 10:15:17;;;;;;;32.67;20.42;;;;;;;1.72;81.95;147753.38;5012761;28;20058;-67
2023/02/01 10:18:06;;;;;;;31.25;21.20;;;;;;;1.66;81.14;147738.13;5017926;28;20040;-66
2023/02/01 10:20:39;;;;;;;33.03;21.50;;;;;;;1.50;81.63;147698.66;5024611;28;20053;-67
2023/02/01 10:23:05;;;;;;;34.80;21.65;;;;;;;1.64;81.74;147733.00;5007206;28;20072;-67
2023/02/01 10:26:00;;;;;;;32.40;20.98;;;;;;;1.37;81.65;147666.84;5024487;28;20242;-66
2023/02/01 10:28:26;;;;;;;33.30;21.98;;;;;;;1.47;82.27;147690.97;5024649;28;20108;-67
2023/02/01 10:30:56;;;;;;;33.00;21.95;;;;;;;1.32;81.97;147654.09;5025354;28;20249;-66
2023/02/01 10:33:25;;;;;;;32.88;20.38;;;;;;;1.62;81.65;147727.91;5025076;28;20053;-66
2023/02/01 10:36:10;;;;;;;34.90;21.92;;;;;;;1.53;81.44;147706.28;5026280;28;20037;-68
2023/02/01 10:38:36;;;;;;;33.55;21.92;;;;;;;1.46;81.69;147688.47;5024553;28;20033;-66
2023/02/01 10:41:15;;;;;;;31.98;20.40;;;;;;;1.63;81.96;147731.75;5024584;28;20044;-67
2023/02/01 10:43:43;;;;;;;39.08;23.25;;;;;;;1.59;82.42;147720.28;5023268;28;20033;-66
2023/02/01 10:46:09;;;;;;;36.67;21.48;;;;;;;1.51;82.81;147701.16;5019048;28;20025;-68
2023/02/01 10:48:35;;;;;;;40.25;22.73;;;;;;;1.58;82.65;147717.72;5043958;28;20044;-66
2023/02/01 10:51:07;;;;;;;40.63;24.20;;;;;;;1.75;82.29;147761.00;5039750;28;20107;-68
2023/02/01 10:53:42;;;;;;;31.42;20.63;;;;;;;1.62;81.69;147729.19;5042409;28;20048;-66
2023/02/01 10:56:10;;;;;;;31.17;20.35;;;;;;;1.69;81.75;147747.00;5044022;28;20052;-67
2023/02/01 10:58:43;;;;;;;29.90;19.63;;;;;;;1.71;81.20;147752.13;5042942;28;20029;-66
2023/02/01 11:01:18;;;;;;;37.95;21.88;;;;;;;1.70;81.11;147749.56;5042638;28;20093;-67
2023/02/01 11:03:58;;;;;;;32.50;20.00;;;;;;;1.64;80.95;147733.00;5042880;28;20029;-66
2023/02/01 11:06:35;;;;;;;32.63;21.17;;;;;;;1.70;80.95;147749.56;5035062;28;20048;-66
2023/02/01 11:09:22;;;;;;;28.52;19.40;;;;;;;1.61;81.22;147725.38;5058637;28;20055;-67
2023/02/01 11:11:48;;;;;;;32.97;20.15;;;;;;;1.46;81.92;147688.47;5050530;28;20044;-68
2023/02/01 11:14:19;;;;;;;29.08;19.75;;;;;;;1.60;81.44;147722.84;5042831;28;20037;-67
2023/02/01 11:16:50;;;;;;;27.95;19.15;;;;;;;1.70;80.90;147748.31;5043624;28;20294;-67
2023/02/01 11:19:17;;;;;;;32.13;19.30;;;;;;;1.73;80.65;147757.19;5035175;28;20079;-67
2023/02/01 11:21:46;;;;;;;36.10;19.88;;;;;;;1.67;80.82;147740.69;5043921;28;20029;-66
2023/02/01 11:24:39;;;;;;;27.75;18.70;;;;;;;1.68;81.38;147744.50;5043538;28;20056;-68
2023/02/01 11:27:17;;;;;;;27.02;18.48;;;;;;;1.75;80.73;147759.75;5041638;28;20045;-67
2023/02/01 11:29:45;;;;;;;28.67;19.15;;;;;;;1.55;80.34;147712.66;5039511;28;20033;-66
2023/02/01 11:32:14;;;;;;;30.52;19.15;;;;;;;1.51;81.25;147702.47;5042013;28;20048;-64
2023/02/01 11:34:45;;;;;;;39.53;21.55;;;;;;;1.68;81.59;147743.19;5025923;28;20343;-65
2023/02/01 11:37:23;;;;;;;44.57;21.70;;;;;;;1.70;81.86;147748.31;5043583;28;20088;-66
2023/02/01 11:39:57;;;;;;;28.92;19.60;;;;;;;1.82;81.53;147777.56;5043437;28;20049;-66
2023/02/01 11:42:24;;;;;;;27.05;19.30;;;;;;;1.67;81.68;147740.69;5042033;28;20037;-68
2023/02/01 11:44:50;;;;;;;29.45;18.65;;;;;;;1.64;81.41;147734.28;5031453;28;20218;-65
2023/02/01 11:47:31;;;;;;;29.77;19.17;;;;;;;1.44;81.59;147683.34;5029659;28;20109;-66
2023/02/01 11:50:14;;;;;;;31.98;18.85;;;;;;;1.47;80.60;147692.28;5042528;28;20044;-66
2023/02/01 11:53:16;;;;;;;30.38;19.35;;;;;;;1.53;81.26;147707.53;5025189;28;20071;-67